createdAt,value
2023-04-26T00:00:04.269Z,603.00
2023-04-26T00:01:04.293Z,602.00
2023-04-26T00:02:05.306Z,603.00
2023-04-26T00:03:05.432Z,602.00
2023-04-26T00:04:04.601Z,600.00
2023-04-26T00:05:05.598Z,601.00
2023-04-26T00:06:04.365Z,602.00
2023-04-26T00:07:04.377Z,602.00
2023-04-26T00:08:05.414Z,602.00
2023-04-26T00:09:04.424Z,603.00
2023-04-26T00:10:05.459Z,604.00
2023-04-26T00:11:05.488Z,604.00
2023-04-26T00:12:05.490Z,604.00
2023-04-26T00:13:05.533Z,605.00
2023-04-26T00:14:05.574Z,604.00
2023-04-26T00:15:04.689Z,605.00
2023-04-26T00:16:05.694Z,607.00
2023-04-26T00:17:05.627Z,606.00
2023-04-26T00:18:04.700Z,605.00
2023-04-26T00:19:05.679Z,601.00
2023-04-26T00:20:05.718Z,601.00
2023-04-26T00:21:05.736Z,597.00
2023-04-26T00:22:05.761Z,595.00
2023-04-26T00:23:05.772Z,596.00
2023-04-26T00:24:05.808Z,594.00
2023-04-26T00:25:05.847Z,596.00
2023-04-26T00:26:05.894Z,599.00
2023-04-26T00:27:05.885Z,598.00
2023-04-26T00:28:05.906Z,594.00
2023-04-26T00:29:05.918Z,595.00
2023-04-26T00:30:05.976Z,597.00
2023-04-26T00:31:05.960Z,597.00
2023-04-26T00:32:06.095Z,595.00
2023-04-26T00:33:05.102Z,593.00
2023-04-26T00:34:06.030Z,595.00
2023-04-26T00:35:06.058Z,595.00
2023-04-26T00:36:05.094Z,598.00
2023-04-26T00:37:06.200Z,600.00
2023-04-26T00:38:06.526Z,597.00
2023-04-26T00:39:06.179Z,598.00
2023-04-26T00:40:06.193Z,598.00
2023-04-26T00:41:06.253Z,601.00
2023-04-26T00:42:05.248Z,599.00
2023-04-26T00:43:05.281Z,598.00
2023-04-26T00:44:05.301Z,597.00
2023-04-26T00:45:05.331Z,596.00
2023-04-26T00:46:05.425Z,596.00
2023-04-26T00:47:06.382Z,596.00
2023-04-26T00:48:05.447Z,596.00
2023-04-26T00:49:05.433Z,596.00
2023-04-26T00:50:06.465Z,597.00
2023-04-26T00:51:05.526Z,598.00
2023-04-26T00:52:06.520Z,599.00
2023-04-26T00:53:06.549Z,602.00
2023-04-26T00:54:05.586Z,602.00
2023-04-26T00:55:06.601Z,603.00
2023-04-26T00:56:06.775Z,605.00
2023-04-26T00:57:06.694Z,604.00
2023-04-26T00:58:05.700Z,603.00
2023-04-26T00:59:05.708Z,600.00
2023-04-26T01:00:06.733Z,599.00
2023-04-26T01:01:06.844Z,598.00
2023-04-26T01:02:05.840Z,597.00
2023-04-26T01:03:05.957Z,598.00
2023-04-26T01:04:06.992Z,598.00
2023-04-26T01:05:06.954Z,600.00
2023-04-26T01:06:05.851Z,598.00
2023-04-26T01:07:06.895Z,598.00
2023-04-26T01:08:05.934Z,598.00
2023-04-26T01:09:06.929Z,597.00
2023-04-26T01:10:07.493Z,600.00
2023-04-26T01:11:06.003Z,600.00
2023-04-26T01:12:07.032Z,600.00
2023-04-26T01:13:06.046Z,600.00
2023-04-26T01:14:06.122Z,599.00
2023-04-26T01:15:06.107Z,598.00
2023-04-26T01:16:07.134Z,598.00
2023-04-26T01:17:06.305Z,600.00
2023-04-26T01:18:06.265Z,600.00
2023-04-26T01:19:07.252Z,603.00
2023-04-26T01:20:06.308Z,602.00
2023-04-26T01:21:07.379Z,600.00
2023-04-26T01:22:07.381Z,596.00
2023-04-26T01:23:07.510Z,595.00
2023-04-26T01:24:07.451Z,594.00
2023-04-26T01:25:06.472Z,595.00
2023-04-26T01:26:07.866Z,595.00
2023-04-26T01:27:06.533Z,596.00
2023-04-26T01:28:07.559Z,593.00
2023-04-26T01:29:06.599Z,592.00
2023-04-26T01:30:06.644Z,590.00
2023-04-26T01:31:07.734Z,588.00
2023-04-26T01:32:06.700Z,588.00
2023-04-26T01:33:07.769Z,589.00
2023-04-26T01:34:07.796Z,590.00
2023-04-26T01:35:06.791Z,592.00
2023-04-26T01:36:06.837Z,591.00
2023-04-26T01:37:07.940Z,591.00
2023-04-26T01:38:06.918Z,592.00
2023-04-26T01:39:07.942Z,587.00
2023-04-26T01:40:08.008Z,586.00
2023-04-26T01:41:07.003Z,586.00
2023-04-26T01:42:07.046Z,586.00
2023-04-26T01:43:07.082Z,586.00
2023-04-26T01:44:08.102Z,588.00
2023-04-26T01:45:08.156Z,590.00
2023-04-26T01:46:07.204Z,592.00
2023-04-26T01:47:08.214Z,591.00
2023-04-26T01:48:08.345Z,590.00
2023-04-26T01:49:08.282Z,591.00
2023-04-26T01:50:08.911Z,588.00
2023-04-26T01:51:07.327Z,590.00
2023-04-26T01:52:08.350Z,589.00
2023-04-26T01:53:07.435Z,587.00
2023-04-26T01:54:08.426Z,588.00
2023-04-26T01:55:08.461Z,588.00
2023-04-26T01:56:08.489Z,587.00
2023-04-26T01:57:08.521Z,586.00
2023-04-26T01:58:07.549Z,585.00
2023-04-26T01:59:07.604Z,584.00
2023-04-26T02:00:07.645Z,583.00
2023-04-26T02:01:08.701Z,581.00
2023-04-26T02:02:08.733Z,578.00
2023-04-26T02:03:07.868Z,577.00
2023-04-26T02:04:08.762Z,578.00
2023-04-26T02:05:08.828Z,579.00
2023-04-26T02:06:08.863Z,581.00
2023-04-26T02:07:07.895Z,582.00
2023-04-26T02:08:08.898Z,580.00
2023-04-26T02:09:07.916Z,579.00
2023-04-26T02:10:08.946Z,580.00
2023-04-26T02:11:08.011Z,578.00
2023-04-26T02:12:09.020Z,577.00
2023-04-26T02:13:09.057Z,575.00
2023-04-26T02:14:09.074Z,576.00
2023-04-26T02:15:08.109Z,577.00
2023-04-26T02:16:08.173Z,576.00
2023-04-26T02:17:08.190Z,576.00
2023-04-26T02:18:08.261Z,577.00
2023-04-26T02:19:09.293Z,577.00
2023-04-26T02:20:09.306Z,576.00
2023-04-26T02:21:08.317Z,576.00
2023-04-26T02:22:09.381Z,577.00
2023-04-26T02:23:09.435Z,576.00
2023-04-26T02:24:08.428Z,575.00
2023-04-26T02:25:09.460Z,576.00
2023-04-26T02:26:09.487Z,575.00
2023-04-26T02:27:08.544Z,574.00
2023-04-26T02:28:09.578Z,574.00
2023-04-26T02:29:09.595Z,573.00
2023-04-26T02:30:09.622Z,570.00
2023-04-26T02:31:08.719Z,568.00
2023-04-26T02:32:09.700Z,569.00
2023-04-26T02:33:09.757Z,571.00
2023-04-26T02:34:08.763Z,574.00
2023-04-26T02:35:09.808Z,573.00
2023-04-26T02:36:09.856Z,575.00
2023-04-26T02:37:09.883Z,576.00
2023-04-26T02:38:09.954Z,576.00
2023-04-26T02:39:09.998Z,577.00
2023-04-26T02:40:09.972Z,577.00
2023-04-26T02:41:10.028Z,577.00
2023-04-26T02:42:09.556Z,576.00
2023-04-26T02:43:10.104Z,577.00
2023-04-26T02:44:10.128Z,578.00
2023-04-26T02:45:10.160Z,577.00
2023-04-26T02:46:09.255Z,577.00
2023-04-26T02:47:10.431Z,576.00
2023-04-26T02:48:09.355Z,577.00
2023-04-26T02:49:10.332Z,577.00
2023-04-26T02:50:10.389Z,575.00
2023-04-26T02:51:10.428Z,576.00
2023-04-26T02:52:10.460Z,577.00
2023-04-26T02:53:09.522Z,577.00
2023-04-26T02:54:10.602Z,578.00
2023-04-26T02:55:10.600Z,579.00
2023-04-26T02:56:10.663Z,579.00
2023-04-26T02:57:10.700Z,581.00
2023-04-26T02:58:10.775Z,581.00
2023-04-26T02:59:10.800Z,580.00
2023-04-26T03:00:10.850Z,580.00
2023-04-26T03:01:10.894Z,582.00
2023-04-26T03:02:09.954Z,582.00
2023-04-26T03:03:10.064Z,580.00
2023-04-26T03:04:10.160Z,581.00
2023-04-26T03:05:11.060Z,578.00
2023-04-26T03:06:10.098Z,575.00
2023-04-26T03:07:10.146Z,572.00
2023-04-26T03:08:11.182Z,572.00
2023-04-26T03:09:11.261Z,571.00
2023-04-26T03:10:11.299Z,570.00
2023-04-26T03:11:10.321Z,572.00
2023-04-26T03:12:11.360Z,572.00
2023-04-26T03:13:11.400Z,570.00
2023-04-26T03:14:11.467Z,569.00
2023-04-26T03:15:10.502Z,570.00
2023-04-26T03:16:10.546Z,570.00
2023-04-26T03:17:11.586Z,570.00
2023-04-26T03:18:11.691Z,571.00
2023-04-26T03:19:10.660Z,572.00
2023-04-26T03:20:10.720Z,571.00
2023-04-26T03:21:11.763Z,572.00
2023-04-26T03:22:11.807Z,572.00
2023-04-26T03:23:11.825Z,570.00
2023-04-26T03:24:11.895Z,570.00
2023-04-26T03:25:10.913Z,569.00
2023-04-26T03:26:11.967Z,568.00
2023-04-26T03:27:11.987Z,565.00
2023-04-26T03:28:12.029Z,565.00
2023-04-26T03:29:11.063Z,565.00
2023-04-26T03:30:12.105Z,567.00
2023-04-26T03:31:12.187Z,566.00
2023-04-26T03:32:12.285Z,567.00
2023-04-26T03:33:12.270Z,570.00
2023-04-26T03:34:12.225Z,571.00
2023-04-26T03:35:12.247Z,572.00
2023-04-26T03:36:11.244Z,573.00
2023-04-26T03:37:12.247Z,576.00
2023-04-26T03:38:11.235Z,578.00
2023-04-26T03:39:12.237Z,579.00
2023-04-26T03:40:12.230Z,577.00
2023-04-26T03:41:12.226Z,575.00
2023-04-26T03:42:12.315Z,573.00
2023-04-26T03:43:12.233Z,574.00
2023-04-26T03:44:11.263Z,575.00
2023-04-26T03:45:12.328Z,575.00
2023-04-26T03:46:12.408Z,576.00
2023-04-26T03:47:11.434Z,575.00
2023-04-26T03:48:12.564Z,575.00
2023-04-26T03:49:11.552Z,575.00
2023-04-26T03:50:11.598Z,578.00
2023-04-26T03:51:11.671Z,579.00
2023-04-26T03:52:12.736Z,578.00
2023-04-26T03:53:12.830Z,578.00
2023-04-26T03:54:12.863Z,576.00
2023-04-26T03:55:12.920Z,576.00
2023-04-26T03:56:12.970Z,574.00
2023-04-26T03:57:12.030Z,575.00
2023-04-26T03:58:13.111Z,576.00
2023-04-26T03:59:12.154Z,575.00
2023-04-26T04:00:12.230Z,574.00
2023-04-26T04:01:13.280Z,575.00
2023-04-26T04:02:13.430Z,576.00
2023-04-26T04:03:13.643Z,574.00
2023-04-26T04:04:12.741Z,571.00
2023-04-26T04:05:12.559Z,571.00
2023-04-26T04:06:13.545Z,573.00
2023-04-26T04:07:12.614Z,571.00
2023-04-26T04:08:12.667Z,571.00
2023-04-26T04:09:13.718Z,570.00
2023-04-26T04:10:14.042Z,569.00
2023-04-26T04:11:12.862Z,570.00
2023-04-26T04:12:13.924Z,569.00
2023-04-26T04:13:13.124Z,570.00
2023-04-26T04:14:14.061Z,569.00
2023-04-26T04:15:14.097Z,570.00
2023-04-26T04:16:14.147Z,568.00
2023-04-26T04:17:13.229Z,568.00
2023-04-26T04:18:13.356Z,570.00
2023-04-26T04:19:14.320Z,568.00
2023-04-26T04:20:14.374Z,568.00
2023-04-26T04:21:14.422Z,567.00
2023-04-26T04:22:13.501Z,568.00
2023-04-26T04:23:14.540Z,568.00
2023-04-26T04:24:14.589Z,568.00
2023-04-26T04:25:14.688Z,570.00
2023-04-26T04:26:14.683Z,570.00
2023-04-26T04:27:13.748Z,570.00
2023-04-26T04:28:14.804Z,569.00
2023-04-26T04:29:13.839Z,568.00
2023-04-26T04:30:15.034Z,565.00
2023-04-26T04:31:14.956Z,563.00
2023-04-26T04:32:14.985Z,563.00
2023-04-26T04:33:14.029Z,562.00
2023-04-26T04:34:14.079Z,560.00
2023-04-26T04:35:15.130Z,559.00
2023-04-26T04:36:14.189Z,557.00
2023-04-26T04:37:14.249Z,560.00
2023-04-26T04:38:15.298Z,559.00
2023-04-26T04:39:14.324Z,561.00
2023-04-26T04:40:14.387Z,562.00
2023-04-26T04:41:14.480Z,563.00
2023-04-26T04:42:14.483Z,561.00
2023-04-26T04:43:15.542Z,561.00
2023-04-26T04:44:15.576Z,559.00
2023-04-26T04:45:15.624Z,559.00
2023-04-26T04:46:14.704Z,560.00
2023-04-26T04:47:15.708Z,558.00
2023-04-26T04:48:15.731Z,559.00
2023-04-26T04:49:15.803Z,558.00
2023-04-26T04:50:15.851Z,560.00
2023-04-26T04:51:15.858Z,559.00
2023-04-26T04:52:16.248Z,558.00
2023-04-26T04:53:16.073Z,556.00
2023-04-26T04:54:16.068Z,558.00
2023-04-26T04:55:16.123Z,557.00
2023-04-26T04:56:16.213Z,558.00
2023-04-26T04:57:16.198Z,557.00
2023-04-26T04:58:16.200Z,555.00
2023-04-26T04:59:16.232Z,555.00
2023-04-26T05:00:16.296Z,554.00
2023-04-26T05:01:15.325Z,555.00
2023-04-26T05:02:15.553Z,556.00
2023-04-26T05:03:15.504Z,557.00
2023-04-26T05:04:15.583Z,557.00
2023-04-26T05:05:15.513Z,558.00
2023-04-26T05:06:16.424Z,558.00
2023-04-26T05:07:15.498Z,558.00
2023-04-26T05:08:16.494Z,559.00
2023-04-26T05:09:15.514Z,558.00
2023-04-26T05:10:16.552Z,558.00
2023-04-26T05:11:15.579Z,558.00
2023-04-26T05:12:16.597Z,554.00
2023-04-26T05:13:16.660Z,553.00
2023-04-26T05:14:16.661Z,554.00
2023-04-26T05:15:15.733Z,558.00
2023-04-26T05:16:16.742Z,561.00
2023-04-26T05:17:16.782Z,565.00
2023-04-26T05:18:16.909Z,569.00
2023-04-26T05:19:16.810Z,576.00
2023-04-26T05:20:15.934Z,583.00
2023-04-26T05:21:15.901Z,584.00
2023-04-26T05:22:15.901Z,589.00
2023-04-26T05:23:15.921Z,591.00
2023-04-26T05:24:15.920Z,593.00
2023-04-26T05:25:15.993Z,597.00
2023-04-26T05:26:16.973Z,600.00
2023-04-26T05:27:17.009Z,604.00
2023-04-26T05:28:17.028Z,605.00
2023-04-26T05:29:17.015Z,610.00
2023-04-26T05:30:17.027Z,614.00
2023-04-26T05:31:17.072Z,614.00
2023-04-26T05:32:17.070Z,616.00
2023-04-26T05:33:17.169Z,623.00
2023-04-26T05:34:17.297Z,666.00
2023-04-26T05:35:17.677Z,685.00
2023-04-26T05:36:17.268Z,702.00
2023-04-26T05:37:17.416Z,698.00
2023-04-26T05:38:17.618Z,694.00
2023-04-26T05:39:17.429Z,721.00
2023-04-26T05:40:17.426Z,764.00
2023-04-26T05:41:16.438Z,729.00
2023-04-26T05:42:18.196Z,739.00
2023-04-26T05:43:17.574Z,760.00
2023-04-26T05:44:16.771Z,815.00
2023-04-26T05:45:17.995Z,830.00
2023-04-26T05:46:18.217Z,843.00
2023-04-26T05:47:18.691Z,892.00
2023-04-26T05:48:16.760Z,923.00
2023-04-26T05:49:18.166Z,928.00
2023-04-26T05:50:17.037Z,938.00
2023-04-26T05:51:19.758Z,977.00
2023-04-26T05:52:18.610Z,901.00
2023-04-26T05:53:18.297Z,799.00
2023-04-26T05:54:18.359Z,671.00
2023-04-26T05:55:19.153Z,694.00
2023-04-26T05:57:35.794Z,857.00
2023-04-26T05:58:36.733Z,832.00
2023-04-26T05:59:36.735Z,834.00
2023-04-26T06:00:36.705Z,834.00
2023-04-26T06:01:36.709Z,820.00
2023-04-26T06:02:35.887Z,801.00
2023-04-26T06:03:37.274Z,788.00
2023-04-26T06:04:36.838Z,783.00
2023-04-26T06:05:36.726Z,760.00
2023-04-26T06:06:36.670Z,756.00
2023-04-26T06:07:35.652Z,760.00
2023-04-26T06:08:36.668Z,761.00
2023-04-26T06:09:36.653Z,765.00
2023-04-26T06:10:35.628Z,767.00
2023-04-26T06:11:35.636Z,764.00
2023-04-26T06:12:36.636Z,760.00
2023-04-26T06:13:35.621Z,756.00
2023-04-26T06:14:36.613Z,754.00
2023-04-26T06:15:35.602Z,748.00
2023-04-26T06:16:36.667Z,691.00
2023-04-26T06:17:36.673Z,702.00
2023-04-26T06:18:36.622Z,707.00
2023-04-26T06:19:36.591Z,711.00
2023-04-26T06:20:36.636Z,710.00
2023-04-26T06:21:35.772Z,708.00
2023-04-26T06:22:35.747Z,707.00
2023-04-26T06:23:35.808Z,705.00
2023-04-26T06:24:35.834Z,703.00
2023-04-26T06:25:36.912Z,698.00
2023-04-26T06:26:36.975Z,694.00
2023-04-26T06:27:35.983Z,692.00
2023-04-26T06:28:37.013Z,689.00
2023-04-26T06:29:37.059Z,688.00
2023-04-26T06:30:37.153Z,687.00
2023-04-26T06:31:36.234Z,683.00
2023-04-26T06:32:37.202Z,683.00
2023-04-26T06:33:37.230Z,676.00
2023-04-26T06:34:37.245Z,672.00
2023-04-26T06:35:37.268Z,672.00
2023-04-26T06:36:37.337Z,666.00
2023-04-26T06:37:37.379Z,663.00
2023-04-26T06:38:36.365Z,660.00
2023-04-26T06:39:37.400Z,657.00
2023-04-26T06:40:37.495Z,651.00
2023-04-26T06:41:37.470Z,648.00
2023-04-26T06:42:37.507Z,644.00
2023-04-26T06:43:37.577Z,639.00
2023-04-26T06:44:37.581Z,638.00
2023-04-26T06:45:36.598Z,637.00
2023-04-26T06:46:37.694Z,637.00
2023-04-26T06:47:37.710Z,633.00
2023-04-26T06:48:37.745Z,627.00
2023-04-26T06:49:37.749Z,621.00
2023-04-26T06:50:37.798Z,620.00
2023-04-26T06:51:37.871Z,614.00
2023-04-26T06:52:37.979Z,612.00
2023-04-26T06:53:38.021Z,610.00
2023-04-26T06:54:45.996Z,605.00
2023-04-26T06:55:37.937Z,602.00
2023-04-26T06:56:37.931Z,599.00
2023-04-26T06:57:36.958Z,594.00
2023-04-26T06:58:36.965Z,590.00
2023-04-26T06:59:37.919Z,586.00
2023-04-26T07:00:38.020Z,580.00
2023-04-26T07:01:37.932Z,580.00
2023-04-26T07:02:38.213Z,577.00
2023-04-26T07:03:37.980Z,573.00
2023-04-26T07:04:37.206Z,570.00
2023-04-26T07:05:37.886Z,564.00
2023-04-26T07:06:36.881Z,564.00
2023-04-26T07:07:36.880Z,562.00
2023-04-26T07:08:37.876Z,560.00
2023-04-26T07:09:37.922Z,559.00
2023-04-26T07:10:38.137Z,560.00
2023-04-26T07:11:36.915Z,561.00
2023-04-26T07:12:37.943Z,563.00
2023-04-26T07:13:38.455Z,563.00
2023-04-26T07:14:39.438Z,561.00
2023-04-26T07:15:38.454Z,559.00
2023-04-26T07:16:37.312Z,557.00
2023-04-26T07:17:38.214Z,554.00
2023-04-26T07:18:38.221Z,552.00
2023-04-26T07:19:37.218Z,551.00
2023-04-26T07:20:37.240Z,550.00
2023-04-26T07:21:37.237Z,549.00
2023-04-26T07:22:38.273Z,546.00
2023-04-26T07:23:38.286Z,546.00
2023-04-26T07:24:38.290Z,545.00
2023-04-26T07:25:38.362Z,543.00
2023-04-26T07:26:37.340Z,540.00
2023-04-26T07:27:38.345Z,539.00
2023-04-26T07:28:38.382Z,539.00
2023-04-26T07:29:38.545Z,536.00
2023-04-26T07:30:37.409Z,535.00
2023-04-26T07:31:37.422Z,532.00
2023-04-26T07:32:37.490Z,532.00
2023-04-26T07:33:38.618Z,533.00
2023-04-26T07:34:37.462Z,534.00
2023-04-26T07:35:38.495Z,534.00
2023-04-26T07:36:38.520Z,535.00
2023-04-26T07:37:38.528Z,533.00
2023-04-26T07:38:37.557Z,534.00
2023-04-26T07:39:38.565Z,532.00
2023-04-26T07:40:38.598Z,529.00
2023-04-26T07:41:38.762Z,530.00
2023-04-26T07:42:37.625Z,528.00
2023-04-26T07:43:38.683Z,525.00
2023-04-26T07:44:38.710Z,522.00
2023-04-26T07:45:37.746Z,520.00
2023-04-26T07:46:38.736Z,519.00
2023-04-26T07:47:38.881Z,514.00
2023-04-26T07:48:37.988Z,511.00
2023-04-26T07:49:38.828Z,532.00
2023-04-26T07:50:38.866Z,596.00
2023-04-26T07:51:38.896Z,627.00
2023-04-26T07:52:38.955Z,692.00
2023-04-26T07:53:39.005Z,746.00
2023-04-26T07:54:39.026Z,661.00
2023-04-26T07:55:38.176Z,565.00
2023-04-26T07:56:39.074Z,566.00
2023-04-26T07:57:39.092Z,646.00
2023-04-26T07:58:39.260Z,631.00
2023-04-26T07:59:39.092Z,651.00
2023-04-26T08:00:39.172Z,740.00
2023-04-26T08:01:39.183Z,755.00
2023-04-26T08:03:38.435Z,871.00
2023-04-26T08:04:39.355Z,895.00
2023-04-26T08:05:39.581Z,942.00
2023-04-26T08:06:39.156Z,959.00
2023-04-26T08:07:38.192Z,983.00
2023-04-26T08:08:38.134Z,1037.00
2023-04-26T08:09:39.119Z,1046.00
2023-04-26T08:10:38.116Z,1062.00
2023-04-26T08:11:39.162Z,1090.00
2023-04-26T08:12:39.166Z,1116.00
2023-04-26T08:13:39.249Z,1134.00
2023-04-26T08:14:39.231Z,1153.00
2023-04-26T08:15:39.270Z,1177.00
2023-04-26T08:16:38.417Z,1220.00
2023-04-26T08:17:38.382Z,1270.00
2023-04-26T08:18:39.404Z,1285.00
2023-04-26T08:19:39.381Z,1310.00
2023-04-26T08:20:39.402Z,1326.00
2023-04-26T08:21:38.432Z,1365.00
2023-04-26T08:22:39.429Z,1375.00
2023-04-26T08:23:39.463Z,1398.00
2023-04-26T08:24:39.478Z,1417.00
2023-04-26T08:25:39.500Z,1445.00
2023-04-26T08:26:39.497Z,1451.00
2023-04-26T08:27:39.500Z,1462.00
2023-04-26T08:28:38.547Z,1493.00
2023-04-26T08:29:38.671Z,1503.00
2023-04-26T08:30:39.508Z,1517.00
2023-04-26T08:31:38.742Z,1528.00
2023-04-26T08:32:38.615Z,1563.00
2023-04-26T08:33:38.567Z,1580.00
2023-04-26T08:34:38.500Z,1593.00
2023-04-26T08:35:39.501Z,1599.00
2023-04-26T08:36:38.492Z,1616.00
2023-04-26T08:37:39.503Z,1631.00
2023-04-26T08:38:39.499Z,1643.00
2023-04-26T08:39:38.498Z,1648.00
2023-04-26T08:40:39.609Z,1657.00
2023-04-26T08:41:38.522Z,1667.00
2023-04-26T08:42:39.535Z,1677.00
2023-04-26T08:43:39.987Z,1627.00
2023-04-26T08:44:39.639Z,1561.00
2023-04-26T08:45:39.719Z,1449.00
2023-04-26T08:46:39.767Z,1442.00
2023-04-26T08:47:39.685Z,1325.00
2023-04-26T08:48:38.682Z,1359.00
2023-04-26T08:49:39.957Z,1318.00
2023-04-26T08:50:38.728Z,1319.00
2023-04-26T08:51:39.729Z,1197.00
2023-04-26T08:52:38.762Z,1295.00
2023-04-26T08:53:39.768Z,1256.00
2023-04-26T08:54:39.846Z,1203.00
2023-04-26T08:55:38.826Z,1171.00
2023-04-26T08:56:39.895Z,1168.00
2023-04-26T08:57:38.929Z,1160.00
2023-04-26T08:58:40.078Z,1138.00
2023-04-26T08:59:39.992Z,1262.00
2023-04-26T09:00:39.062Z,1299.00
2023-04-26T09:01:40.148Z,1333.00
2023-04-26T09:02:40.334Z,1392.00
2023-04-26T09:03:39.223Z,1412.00
2023-04-26T09:04:40.355Z,1452.00
2023-04-26T09:05:40.230Z,1483.00
2023-04-26T09:06:40.278Z,1493.00
2023-04-26T09:07:40.318Z,1568.00
2023-04-26T09:08:40.510Z,1581.00
2023-04-26T09:09:39.407Z,1592.00
2023-04-26T09:10:40.397Z,1620.00
2023-04-26T09:11:39.718Z,1679.00
2023-04-26T09:12:39.436Z,1686.00
2023-04-26T09:13:39.664Z,1701.00
2023-04-26T09:14:40.396Z,1725.00
2023-04-26T09:15:40.485Z,1771.00
2023-04-26T09:16:39.475Z,1791.00
2023-04-26T09:17:39.543Z,1797.00
2023-04-26T09:18:40.536Z,1822.00
2023-04-26T09:19:40.520Z,1837.00
2023-04-26T09:20:40.510Z,1860.00
2023-04-26T09:21:40.526Z,1874.00
2023-04-26T09:22:40.514Z,1886.00
2023-04-26T09:23:40.534Z,1906.00
2023-04-26T09:24:39.527Z,1918.00
2023-04-26T09:25:39.537Z,1941.00
2023-04-26T09:26:39.567Z,2041.00
2023-04-26T09:27:40.587Z,2033.00
2023-04-26T09:28:39.569Z,2047.00
2023-04-26T09:29:40.611Z,2169.00
2023-04-26T09:30:40.671Z,2175.00
2023-04-26T09:31:40.732Z,2192.00
2023-04-26T09:32:40.771Z,2211.00
2023-04-26T09:33:40.831Z,2240.00
2023-04-26T09:34:40.801Z,2263.00
2023-04-26T09:35:40.826Z,2302.00
2023-04-26T09:36:39.817Z,2323.00
2023-04-26T09:37:54.400Z,2341.00
2023-04-26T09:38:40.854Z,2358.00
2023-04-26T09:39:40.869Z,2376.00
2023-04-26T09:40:40.813Z,2415.00
2023-04-26T09:41:40.832Z,2437.00
2023-04-26T09:42:40.790Z,2482.00
2023-04-26T09:43:40.776Z,2506.00
2023-04-26T09:44:39.770Z,2522.00
2023-04-26T09:45:40.764Z,2542.00
2023-04-26T09:46:40.797Z,2616.00
2023-04-26T09:47:40.883Z,2626.00
2023-04-26T09:48:40.849Z,2689.00
2023-04-26T09:49:41.031Z,2649.00
2023-04-26T09:50:39.741Z,2681.00
2023-04-26T09:51:39.730Z,2635.00
2023-04-26T09:52:39.720Z,2673.00
2023-04-26T09:53:46.539Z,2678.00
2023-04-26T09:54:41.571Z,2628.00
2023-04-26T09:55:40.718Z,2615.00
2023-04-26T09:56:40.695Z,2606.00
2023-04-26T09:57:40.689Z,2601.00
2023-04-26T09:58:40.724Z,2585.00
2023-04-26T09:59:39.672Z,2561.00
2023-04-26T10:00:40.696Z,2532.00
2023-04-26T10:01:40.686Z,2517.00
2023-04-26T10:02:39.719Z,2505.00
2023-04-26T10:03:39.927Z,2493.00
2023-04-26T10:04:40.668Z,2472.00
2023-04-26T10:05:40.665Z,2445.00
2023-04-26T10:06:39.707Z,2387.00
2023-04-26T10:07:40.750Z,2377.00
2023-04-26T10:08:40.820Z,2357.00
2023-04-26T10:09:39.890Z,2322.00
2023-04-26T10:10:39.956Z,2315.00
2023-04-26T10:11:41.014Z,2298.00
2023-04-26T10:12:40.037Z,2285.00
2023-04-26T10:13:40.116Z,2278.00
2023-04-26T10:14:40.182Z,2244.00
2023-04-26T10:15:41.273Z,2222.00
2023-04-26T10:16:41.463Z,2153.00
2023-04-26T10:17:41.367Z,2128.00
2023-04-26T10:18:40.399Z,2091.00
2023-04-26T10:19:41.479Z,2042.00
2023-04-26T10:20:41.528Z,2008.00
2023-04-26T10:21:41.588Z,1984.00
2023-04-26T10:22:41.633Z,1936.00
2023-04-26T10:23:40.692Z,1908.00
2023-04-26T10:24:41.739Z,1823.00
2023-04-26T10:25:41.756Z,1791.00
2023-04-26T10:26:41.791Z,1784.00
2023-04-26T10:27:41.949Z,1777.00
2023-04-26T10:28:41.888Z,1753.00
2023-04-26T10:29:40.954Z,1707.00
2023-04-26T10:30:42.005Z,1685.00
2023-04-26T10:31:42.127Z,1681.00
2023-04-26T10:32:42.156Z,1681.00
2023-04-26T10:33:42.178Z,1675.00
2023-04-26T10:34:42.258Z,1662.00
2023-04-26T10:35:42.299Z,1655.00
2023-04-26T10:36:42.357Z,1648.00
2023-04-26T10:37:42.437Z,1643.00
2023-04-26T10:38:42.481Z,1639.00
2023-04-26T10:39:42.543Z,1622.00
2023-04-26T10:40:42.706Z,1604.00
2023-04-26T10:41:42.612Z,1331.00
2023-04-26T10:42:42.630Z,1408.00
2023-04-26T10:43:42.676Z,1379.00
2023-04-26T10:44:41.698Z,1191.00
2023-04-26T10:45:41.752Z,1220.00
2023-04-26T10:46:43.024Z,1208.00
2023-04-26T10:47:41.825Z,1204.00
2023-04-26T10:48:41.840Z,1271.00
2023-04-26T10:49:41.922Z,1378.00
2023-04-26T10:50:41.945Z,1409.00
2023-04-26T10:51:43.226Z,1428.00
2023-04-26T10:52:41.996Z,1487.00
2023-04-26T10:53:43.002Z,1497.00
2023-04-26T10:54:42.988Z,1509.00
2023-04-26T10:55:43.248Z,1511.00
2023-04-26T10:56:43.020Z,1515.00
2023-04-26T10:57:42.017Z,1521.00
2023-04-26T10:58:41.980Z,1521.00
2023-04-26T10:59:54.008Z,1522.00
2023-04-26T11:00:42.987Z,1518.00
2023-04-26T11:01:42.023Z,1524.00
2023-04-26T11:02:42.019Z,1522.00
2023-04-26T11:03:42.264Z,1528.00
2023-04-26T11:04:42.023Z,1529.00
2023-04-26T11:05:41.939Z,1529.00
2023-04-26T11:06:42.943Z,1532.00
2023-04-26T11:07:42.551Z,1535.00
2023-04-26T11:08:42.919Z,1533.00
2023-04-26T11:09:43.044Z,1529.00
2023-04-26T11:10:43.013Z,1527.00
2023-04-26T11:11:43.084Z,1521.00
2023-04-26T11:12:43.153Z,1518.00
2023-04-26T11:13:43.193Z,1521.00
2023-04-26T11:14:43.254Z,1520.00
2023-04-26T11:15:43.335Z,1524.00
2023-04-26T11:16:44.218Z,1525.00
2023-04-26T11:17:43.438Z,1530.00
2023-04-26T11:18:43.435Z,1539.00
2023-04-26T11:19:43.524Z,1546.00
2023-04-26T11:20:43.526Z,1543.00
2023-04-26T11:21:43.587Z,1545.00
2023-04-26T11:22:43.622Z,1541.00
2023-04-26T11:23:42.687Z,1543.00
2023-04-26T11:24:43.691Z,1544.00
2023-04-26T11:25:42.812Z,1544.00
2023-04-26T11:26:43.746Z,1540.00
2023-04-26T11:27:43.801Z,1535.00
2023-04-26T11:28:43.834Z,1537.00
2023-04-26T11:29:43.921Z,1535.00
2023-04-26T11:30:43.532Z,1530.00
2023-04-26T11:31:43.989Z,1522.00
2023-04-26T11:32:44.008Z,1522.00
2023-04-26T11:33:44.026Z,1514.00
2023-04-26T11:34:44.066Z,1512.00
2023-04-26T11:35:44.090Z,1513.00
2023-04-26T11:36:44.132Z,1523.00
2023-04-26T11:37:43.182Z,1547.00
2023-04-26T11:38:43.224Z,1539.00
2023-04-26T11:39:43.265Z,1538.00
2023-04-26T11:40:44.323Z,1530.00
2023-04-26T11:41:43.412Z,1525.00
2023-04-26T11:42:44.434Z,1514.00
2023-04-26T11:43:43.551Z,1509.00
2023-04-26T11:44:45.697Z,1479.00
2023-04-26T11:45:44.592Z,1477.00
2023-04-26T11:46:44.672Z,1480.00
2023-04-26T11:47:43.686Z,1473.00
2023-04-26T11:48:43.644Z,1451.00
2023-04-26T11:49:43.635Z,1452.00
2023-04-26T11:50:44.637Z,1442.00
2023-04-26T11:51:44.683Z,1455.00
2023-04-26T11:52:44.668Z,1470.00
2023-04-26T11:53:43.669Z,1486.00
2023-04-26T11:54:44.689Z,1487.00
2023-04-26T11:55:43.700Z,1488.00
2023-04-26T11:56:44.710Z,1490.00
2023-04-26T11:57:44.948Z,1493.00
2023-04-26T11:58:44.756Z,1493.00
2023-04-26T11:59:44.811Z,1496.00
2023-04-26T12:00:44.824Z,1502.00
2023-04-26T12:01:43.899Z,1504.00
2023-04-26T12:02:44.947Z,1505.00
2023-04-26T12:03:44.973Z,1505.00
2023-04-26T12:04:44.295Z,1504.00
2023-04-26T12:05:43.962Z,1505.00
2023-04-26T12:06:43.998Z,1507.00
2023-04-26T12:07:45.037Z,1512.00
2023-04-26T12:08:45.074Z,1513.00
2023-04-26T12:09:45.142Z,1509.00
2023-04-26T12:10:45.177Z,1506.00
2023-04-26T12:11:45.249Z,1504.00
2023-04-26T12:12:45.307Z,1506.00
2023-04-26T12:13:44.406Z,1505.00
2023-04-26T12:14:45.406Z,1503.00
2023-04-26T12:15:44.472Z,1504.00
2023-04-26T12:16:45.540Z,1506.00
2023-04-26T12:17:45.644Z,1501.00
2023-04-26T12:18:45.632Z,1500.00
2023-04-26T12:19:44.699Z,1503.00
2023-04-26T12:20:44.753Z,1502.00
2023-04-26T12:21:45.830Z,1501.00
2023-04-26T12:22:45.871Z,1500.00